sensor_id;sensor_type;location;lat;lon;timestamp;P1;durP1;ratioP1;P2;durP2;ratioP2
6852;SDS011;3465;42.144;24.722;2023-03-01T00:01:00;7.77;;;4.47;;
6852;SDS011;3465;42.144;24.722;2023-03-01T00:03:29;6.47;;;4.70;;
6852;SDS011;3465;42.144;24.722;2023-03-01T00:05:55;6.60;;;4.63;;
6852;SDS011;3465;42.144;24.722;2023-03-01T00:08:20;8.40;;;4.47;;
6852;SDS011;3465;42.144;24.722;2023-03-01T00:10:45;4.83;;;3.97;;
6852;SDS011;3465;42.144;24.722;2023-03-01T00:13:11;8.10;;;4.57;;
6852;SDS011;3465;42.144;24.722;2023-03-01T00:15:39;5.67;;;4.13;;
6852;SDS011;3465;42.144;24.722;2023-03-01T00:18:06;6.10;;;4.23;;
6852;SDS011;3465;42.144;24.722;2023-03-01T00:20:33;4.97;;;3.57;;
6852;SDS011;3465;42.144;24.722;2023-03-01T00:22:58;4.43;;;3.50;;
6852;SDS011;3465;42.144;24.722;2023-03-01T00:25:24;6.80;;;3.40;;
6852;SDS011;3465;42.144;24.722;2023-03-01T00:27:49;3.73;;;3.13;;
6852;SDS011;3465;42.144;24.722;2023-03-01T00:30:15;5.00;;;3.40;;
6852;SDS011;3465;42.144;24.722;2023-03-01T00:32:40;5.10;;;3.80;;
6852;SDS011;3465;42.144;24.722;2023-03-01T00:35:06;3.97;;;3.30;;
6852;SDS011;3465;42.144;24.722;2023-03-01T00:37:32;4.60;;;3.30;;
6852;SDS011;3465;42.144;24.722;2023-03-01T00:39:57;5.00;;;3.50;;
6852;SDS011;3465;42.144;24.722;2023-03-01T00:42:22;6.50;;;3.70;;
6852;SDS011;3465;42.144;24.722;2023-03-01T00:44:48;5.00;;;3.30;;
6852;SDS011;3465;42.144;24.722;2023-03-01T00:47:13;5.17;;;3.43;;
6852;SDS011;3465;42.144;24.722;2023-03-01T00:49:39;4.73;;;3.50;;
6852;SDS011;3465;42.144;24.722;2023-03-01T00:52:04;5.67;;;3.50;;
6852;SDS011;3465;42.144;24.722;2023-03-01T00:54:29;5.23;;;3.40;;
6852;SDS011;3465;42.144;24.722;2023-03-01T00:56:55;4.53;;;3.07;;
6852;SDS011;3465;42.144;24.722;2023-03-01T00:59:20;4.77;;;3.60;;
6852;SDS011;3465;42.144;24.722;2023-03-01T01:01:46;4.00;;;3.00;;
6852;SDS011;3465;42.144;24.722;2023-03-01T01:04:12;4.90;;;3.80;;
6852;SDS011;3465;42.144;24.722;2023-03-01T01:09:08;4.10;;;3.27;;
6852;SDS011;3465;42.144;24.722;2023-03-01T01:11:34;5.97;;;3.43;;
6852;SDS011;3465;42.144;24.722;2023-03-01T01:14:01;4.43;;;3.10;;
6852;SDS011;3465;42.144;24.722;2023-03-01T01:16:27;7.90;;;3.93;;
6852;SDS011;3465;42.144;24.722;2023-03-01T01:18:53;4.10;;;3.30;;
6852;SDS011;3465;42.144;24.722;2023-03-01T01:21:20;4.20;;;3.50;;
6852;SDS011;3465;42.144;24.722;2023-03-01T01:23:47;5.03;;;3.70;;
6852;SDS011;3465;42.144;24.722;2023-03-01T01:26:15;5.40;;;3.43;;
6852;SDS011;3465;42.144;24.722;2023-03-01T01:28:42;4.23;;;3.47;;
6852;SDS011;3465;42.144;24.722;2023-03-01T01:31:08;5.93;;;3.97;;
6852;SDS011;3465;42.144;24.722;2023-03-01T01:33:33;5.17;;;4.17;;
6852;SDS011;3465;42.144;24.722;2023-03-01T01:35:59;6.20;;;4.23;;
6852;SDS011;3465;42.144;24.722;2023-03-01T01:38:25;6.10;;;4.70;;
6852;SDS011;3465;42.144;24.722;2023-03-01T01:40:50;5.67;;;4.27;;
6852;SDS011;3465;42.144;24.722;2023-03-01T01:43:17;5.50;;;4.50;;
6852;SDS011;3465;42.144;24.722;2023-03-01T01:45:46;6.13;;;4.27;;
6852;SDS011;3465;42.144;24.722;2023-03-01T01:48:12;6.17;;;4.47;;
6852;SDS011;3465;42.144;24.722;2023-03-01T01:50:41;7.13;;;4.73;;
6852;SDS011;3465;42.144;24.722;2023-03-01T01:53:10;6.93;;;4.77;;
6852;SDS011;3465;42.144;24.722;2023-03-01T01:55:40;7.33;;;4.47;;
6852;SDS011;3465;42.144;24.722;2023-03-01T01:58:10;6.60;;;4.63;;
6852;SDS011;3465;42.144;24.722;2023-03-01T02:00:38;7.47;;;4.20;;
6852;SDS011;3465;42.144;24.722;2023-03-01T02:03:06;6.10;;;4.57;;
6852;SDS011;3465;42.144;24.722;2023-03-01T02:05:37;7.73;;;5.17;;
6852;SDS011;3465;42.144;24.722;2023-03-01T02:08:03;7.07;;;5.00;;
6852;SDS011;3465;42.144;24.722;2023-03-01T02:10:30;6.07;;;4.57;;
6852;SDS011;3465;42.144;24.722;2023-03-01T02:13:00;5.87;;;4.67;;
6852;SDS011;3465;42.144;24.722;2023-03-01T02:15:27;6.83;;;5.13;;
6852;SDS011;3465;42.144;24.722;2023-03-01T02:17:57;7.23;;;4.80;;
6852;SDS011;3465;42.144;24.722;2023-03-01T02:23:00;5.90;;;4.53;;
6852;SDS011;3465;42.144;24.722;2023-03-01T02:30:49;8.30;;;5.40;;
6852;SDS011;3465;42.144;24.722;2023-03-01T02:33:35;8.60;;;5.40;;
6852;SDS011;3465;42.144;24.722;2023-03-01T02:36:24;7.97;;;5.73;;
6852;SDS011;3465;42.144;24.722;2023-03-01T02:38:55;7.33;;;5.00;;
6852;SDS011;3465;42.144;24.722;2023-03-01T02:41:23;7.93;;;5.47;;
6852;SDS011;3465;42.144;24.722;2023-03-01T02:43:51;8.27;;;5.63;;
6852;SDS011;3465;42.144;24.722;2023-03-01T02:46:21;9.00;;;5.60;;
6852;SDS011;3465;42.144;24.722;2023-03-01T02:48:50;9.73;;;5.87;;
6852;SDS011;3465;42.144;24.722;2023-03-01T02:54:14;8.10;;;5.33;;
6852;SDS011;3465;42.144;24.722;2023-03-01T02:56:40;7.30;;;4.60;;
6852;SDS011;3465;42.144;24.722;2023-03-01T02:59:07;5.90;;;4.63;;
6852;SDS011;3465;42.144;24.722;2023-03-01T03:01:34;5.47;;;4.10;;
6852;SDS011;3465;42.144;24.722;2023-03-01T03:04:06;6.40;;;4.40;;
6852;SDS011;3465;42.144;24.722;2023-03-01T03:06:33;5.03;;;4.13;;
6852;SDS011;3465;42.144;24.722;2023-03-01T03:08:59;4.93;;;3.67;;
6852;SDS011;3465;42.144;24.722;2023-03-01T03:11:24;5.07;;;3.70;;
6852;SDS011;3465;42.144;24.722;2023-03-01T03:13:50;5.30;;;3.93;;
6852;SDS011;3465;42.144;24.722;2023-03-01T03:16:17;6.90;;;3.90;;
6852;SDS011;3465;42.144;24.722;2023-03-01T03:18:42;5.40;;;3.90;;
6852;SDS011;3465;42.144;24.722;2023-03-01T03:21:08;7.13;;;3.80;;
6852;SDS011;3465;42.144;24.722;2023-03-01T03:23:36;6.40;;;4.10;;
6852;SDS011;3465;42.144;24.722;2023-03-01T03:26:02;6.13;;;4.20;;
6852;SDS011;3465;42.144;24.722;2023-03-01T03:28:29;6.40;;;4.50;;
6852;SDS011;3465;42.144;24.722;2023-03-01T03:30:55;6.57;;;4.57;;
6852;SDS011;3465;42.144;24.722;2023-03-01T03:33:21;7.73;;;5.33;;
6852;SDS011;3465;42.144;24.722;2023-03-01T03:35:48;9.83;;;6.13;;
6852;SDS011;3465;42.144;24.722;2023-03-01T03:38:15;7.97;;;5.67;;
6852;SDS011;3465;42.144;24.722;2023-03-01T03:40:48;10.10;;;6.20;;
6852;SDS011;3465;42.144;24.722;2023-03-01T03:43:26;10.80;;;6.60;;
6852;SDS011;3465;42.144;24.722;2023-03-01T03:45:51;9.00;;;6.13;;
6852;SDS011;3465;42.144;24.722;2023-03-01T03:48:17;12.03;;;7.20;;
6852;SDS011;3465;42.144;24.722;2023-03-01T03:50:47;13.30;;;8.17;;
6852;SDS011;3465;42.144;24.722;2023-03-01T03:53:14;13.30;;;8.20;;
6852;SDS011;3465;42.144;24.722;2023-03-01T03:55:40;12.17;;;8.47;;
6852;SDS011;3465;42.144;24.722;2023-03-01T04:04:10;11.20;;;7.00;;
6852;SDS011;3465;42.144;24.722;2023-03-01T04:06:36;10.07;;;6.87;;
6852;SDS011;3465;42.144;24.722;2023-03-01T04:09:01;8.00;;;5.90;;
6852;SDS011;3465;42.144;24.722;2023-03-01T04:11:27;7.77;;;5.73;;
6852;SDS011;3465;42.144;24.722;2023-03-01T04:13:53;7.83;;;5.10;;
6852;SDS011;3465;42.144;24.722;2023-03-01T04:16:20;6.57;;;4.77;;
6852;SDS011;3465;42.144;24.722;2023-03-01T04:18:46;7.40;;;4.80;;
6852;SDS011;3465;42.144;24.722;2023-03-01T04:21:12;7.30;;;4.50;;
6852;SDS011;3465;42.144;24.722;2023-03-01T04:23:37;7.73;;;4.67;;
6852;SDS011;3465;42.144;24.722;2023-03-01T04:26:03;7.70;;;5.27;;
6852;SDS011;3465;42.144;24.722;2023-03-01T04:28:32;7.73;;;4.80;;
6852;SDS011;3465;42.144;24.722;2023-03-01T04:31:06;7.27;;;4.40;;
6852;SDS011;3465;42.144;24.722;2023-03-01T04:33:53;8.47;;;4.63;;
6852;SDS011;3465;42.144;24.722;2023-03-01T04:36:21;6.60;;;4.70;;
6852;SDS011;3465;42.144;24.722;2023-03-01T04:38:49;7.73;;;4.83;;
6852;SDS011;3465;42.144;24.722;2023-03-01T04:41:15;6.93;;;4.60;;
6852;SDS011;3465;42.144;24.722;2023-03-01T04:43:42;7.03;;;4.97;;
6852;SDS011;3465;42.144;24.722;2023-03-01T04:46:08;9.47;;;5.20;;
6852;SDS011;3465;42.144;24.722;2023-03-01T04:48:41;9.20;;;5.10;;
6852;SDS011;3465;42.144;24.722;2023-03-01T04:51:08;7.40;;;5.07;;
6852;SDS011;3465;42.144;24.722;2023-03-01T04:53:34;8.37;;;5.23;;
6852;SDS011;3465;42.144;24.722;2023-03-01T04:56:02;7.13;;;5.10;;
6852;SDS011;3465;42.144;24.722;2023-03-01T04:58:28;7.67;;;4.90;;
6852;SDS011;3465;42.144;24.722;2023-03-01T05:00:54;9.43;;;5.03;;
6852;SDS011;3465;42.144;24.722;2023-03-01T05:03:20;6.87;;;4.80;;
6852;SDS011;3465;42.144;24.722;2023-03-01T05:05:47;6.73;;;4.70;;
6852;SDS011;3465;42.144;24.722;2023-03-01T05:08:15;8.73;;;5.40;;
6852;SDS011;3465;42.144;24.722;2023-03-01T05:10:44;8.30;;;5.57;;
6852;SDS011;3465;42.144;24.722;2023-03-01T05:13:12;6.97;;;5.03;;
6852;SDS011;3465;42.144;24.722;2023-03-01T05:15:40;8.97;;;5.37;;
6852;SDS011;3465;42.144;24.722;2023-03-01T05:18:05;8.10;;;5.27;;
6852;SDS011;3465;42.144;24.722;2023-03-01T05:20:36;9.13;;;5.50;;
6852;SDS011;3465;42.144;24.722;2023-03-01T05:23:02;9.03;;;5.70;;
6852;SDS011;3465;42.144;24.722;2023-03-01T05:25:30;7.50;;;5.47;;
6852;SDS011;3465;42.144;24.722;2023-03-01T05:27:58;9.50;;;5.70;;
6852;SDS011;3465;42.144;24.722;2023-03-01T05:30:24;8.27;;;5.70;;
6852;SDS011;3465;42.144;24.722;2023-03-01T05:32:50;10.30;;;6.17;;
6852;SDS011;3465;42.144;24.722;2023-03-01T05:35:20;11.03;;;6.73;;
6852;SDS011;3465;42.144;24.722;2023-03-01T05:37:47;10.13;;;6.50;;
6852;SDS011;3465;42.144;24.722;2023-03-01T05:40:18;8.80;;;6.17;;
6852;SDS011;3465;42.144;24.722;2023-03-01T05:42:46;11.83;;;6.43;;
6852;SDS011;3465;42.144;24.722;2023-03-01T05:45:17;9.23;;;6.20;;
6852;SDS011;3465;42.144;24.722;2023-03-01T05:47:43;9.83;;;6.43;;
6852;SDS011;3465;42.144;24.722;2023-03-01T05:50:11;9.37;;;6.40;;
6852;SDS011;3465;42.144;24.722;2023-03-01T05:52:44;12.50;;;8.03;;
6852;SDS011;3465;42.144;24.722;2023-03-01T05:55:15;12.13;;;6.80;;
6852;SDS011;3465;42.144;24.722;2023-03-01T05:57:42;10.83;;;6.83;;
6852;SDS011;3465;42.144;24.722;2023-03-01T06:00:08;9.47;;;7.03;;
6852;SDS011;3465;42.144;24.722;2023-03-01T06:02:34;12.40;;;7.50;;
6852;SDS011;3465;42.144;24.722;2023-03-01T06:05:00;10.43;;;6.73;;
6852;SDS011;3465;42.144;24.722;2023-03-01T06:07:25;9.97;;;6.60;;
6852;SDS011;3465;42.144;24.722;2023-03-01T06:09:51;9.77;;;6.70;;
6852;SDS011;3465;42.144;24.722;2023-03-01T06:12:16;9.10;;;6.40;;
6852;SDS011;3465;42.144;24.722;2023-03-01T06:14:42;8.40;;;6.43;;
6852;SDS011;3465;42.144;24.722;2023-03-01T06:17:07;11.80;;;6.27;;
6852;SDS011;3465;42.144;24.722;2023-03-01T06:19:33;10.03;;;6.10;;
6852;SDS011;3465;42.144;24.722;2023-03-01T06:21:58;9.60;;;6.20;;
6852;SDS011;3465;42.144;24.722;2023-03-01T06:24:24;10.57;;;5.90;;
6852;SDS011;3465;42.144;24.722;2023-03-01T06:26:49;8.10;;;5.67;;
6852;SDS011;3465;42.144;24.722;2023-03-01T06:29:14;7.90;;;5.57;;
6852;SDS011;3465;42.144;24.722;2023-03-01T06:31:40;7.73;;;5.50;;
6852;SDS011;3465;42.144;24.722;2023-03-01T06:34:05;6.90;;;5.23;;
6852;SDS011;3465;42.144;24.722;2023-03-01T06:36:31;9.23;;;5.53;;
6852;SDS011;3465;42.144;24.722;2023-03-01T06:38:56;9.63;;;5.30;;
6852;SDS011;3465;42.144;24.722;2023-03-01T06:41:21;7.43;;;5.10;;
6852;SDS011;3465;42.144;24.722;2023-03-01T06:43:47;10.23;;;4.77;;
6852;SDS011;3465;42.144;24.722;2023-03-01T06:46:12;10.90;;;5.50;;
6852;SDS011;3465;42.144;24.722;2023-03-01T06:48:38;10.23;;;5.73;;
6852;SDS011;3465;42.144;24.722;2023-03-01T06:51:03;11.00;;;6.63;;
6852;SDS011;3465;42.144;24.722;2023-03-01T06:53:29;11.13;;;7.40;;
6852;SDS011;3465;42.144;24.722;2023-03-01T06:55:57;14.53;;;8.23;;
6852;SDS011;3465;42.144;24.722;2023-03-01T06:58:25;13.13;;;7.90;;
6852;SDS011;3465;42.144;24.722;2023-03-01T07:00:51;15.30;;;9.40;;
6852;SDS011;3465;42.144;24.722;2023-03-01T07:03:16;19.20;;;11.53;;
6852;SDS011;3465;42.144;24.722;2023-03-01T07:05:42;19.20;;;12.30;;
6852;SDS011;3465;42.144;24.722;2023-03-01T07:08:08;22.37;;;13.07;;
6852;SDS011;3465;42.144;24.722;2023-03-01T07:10:33;18.53;;;11.83;;
6852;SDS011;3465;42.144;24.722;2023-03-01T07:12:58;18.13;;;12.53;;
6852;SDS011;3465;42.144;24.722;2023-03-01T07:15:24;18.40;;;12.17;;
6852;SDS011;3465;42.144;24.722;2023-03-01T07:17:51;17.27;;;11.43;;
6852;SDS011;3465;42.144;24.722;2023-03-01T07:20:17;17.67;;;11.03;;
6852;SDS011;3465;42.144;24.722;2023-03-01T07:22:43;20.17;;;10.37;;
6852;SDS011;3465;42.144;24.722;2023-03-01T07:25:09;16.87;;;9.03;;
6852;SDS011;3465;42.144;24.722;2023-03-01T07:27:35;14.50;;;8.73;;
6852;SDS011;3465;42.144;24.722;2023-03-01T07:30:01;10.93;;;6.63;;
6852;SDS011;3465;42.144;24.722;2023-03-01T07:32:27;15.97;;;7.10;;
6852;SDS011;3465;42.144;24.722;2023-03-01T07:34:53;11.37;;;6.40;;
6852;SDS011;3465;42.144;24.722;2023-03-01T07:37:18;10.73;;;6.70;;
6852;SDS011;3465;42.144;24.722;2023-03-01T07:39:43;10.77;;;6.40;;
6852;SDS011;3465;42.144;24.722;2023-03-01T07:42:09;11.80;;;6.63;;
6852;SDS011;3465;42.144;24.722;2023-03-01T07:44:34;8.90;;;6.50;;
6852;SDS011;3465;42.144;24.722;2023-03-01T07:47:00;11.43;;;6.40;;
6852;SDS011;3465;42.144;24.722;2023-03-01T07:49:25;13.60;;;6.57;;
6852;SDS011;3465;42.144;24.722;2023-03-01T07:51:52;9.80;;;5.70;;
6852;SDS011;3465;42.144;24.722;2023-03-01T07:54:17;11.00;;;5.90;;
6852;SDS011;3465;42.144;24.722;2023-03-01T07:56:43;11.50;;;6.67;;
6852;SDS011;3465;42.144;24.722;2023-03-01T07:59:08;9.80;;;5.67;;
6852;SDS011;3465;42.144;24.722;2023-03-01T08:01:34;8.03;;;4.57;;
6852;SDS011;3465;42.144;24.722;2023-03-01T08:03:59;5.70;;;4.37;;
6852;SDS011;3465;42.144;24.722;2023-03-01T08:06:25;7.30;;;4.50;;
6852;SDS011;3465;42.144;24.722;2023-03-01T08:08:50;8.63;;;4.80;;
6852;SDS011;3465;42.144;24.722;2023-03-01T08:11:16;6.93;;;5.00;;
6852;SDS011;3465;42.144;24.722;2023-03-01T08:13:41;9.97;;;4.83;;
6852;SDS011;3465;42.144;24.722;2023-03-01T08:16:09;9.20;;;5.20;;
6852;SDS011;3465;42.144;24.722;2023-03-01T08:18:37;9.10;;;5.50;;
6852;SDS011;3465;42.144;24.722;2023-03-01T08:21:13;7.60;;;5.40;;
6852;SDS011;3465;42.144;24.722;2023-03-01T08:23:40;5.93;;;4.57;;
6852;SDS011;3465;42.144;24.722;2023-03-01T08:28:38;5.20;;;3.73;;
6852;SDS011;3465;42.144;24.722;2023-03-01T08:31:26;4.40;;;3.53;;
6852;SDS011;3465;42.144;24.722;2023-03-01T08:33:51;4.80;;;3.40;;
6852;SDS011;3465;42.144;24.722;2023-03-01T08:36:22;7.13;;;3.37;;
6852;SDS011;3465;42.144;24.722;2023-03-01T08:38:51;3.93;;;3.10;;
6852;SDS011;3465;42.144;24.722;2023-03-01T08:41:17;7.20;;;3.30;;
6852;SDS011;3465;42.144;24.722;2023-03-01T08:43:43;6.87;;;3.00;;
6852;SDS011;3465;42.144;24.722;2023-03-01T08:46:10;5.10;;;3.03;;
6852;SDS011;3465;42.144;24.722;2023-03-01T08:48:36;5.10;;;2.70;;
6852;SDS011;3465;42.144;24.722;2023-03-01T08:51:17;5.30;;;3.13;;
6852;SDS011;3465;42.144;24.722;2023-03-01T08:53:44;4.00;;;3.00;;
6852;SDS011;3465;42.144;24.722;2023-03-01T08:56:10;3.97;;;2.83;;
6852;SDS011;3465;42.144;24.722;2023-03-01T08:58:36;3.07;;;2.37;;
6852;SDS011;3465;42.144;24.722;2023-03-01T09:01:11;3.57;;;2.20;;
6852;SDS011;3465;42.144;24.722;2023-03-01T09:03:39;6.50;;;2.20;;
6852;SDS011;3465;42.144;24.722;2023-03-01T09:06:05;2.83;;;2.30;;
6852;SDS011;3465;42.144;24.722;2023-03-01T09:08:34;2.40;;;2.10;;
6852;SDS011;3465;42.144;24.722;2023-03-01T09:11:01;3.13;;;2.50;;
6852;SDS011;3465;42.144;24.722;2023-03-01T09:13:28;4.63;;;2.30;;
6852;SDS011;3465;42.144;24.722;2023-03-01T09:15:56;4.30;;;2.40;;
6852;SDS011;3465;42.144;24.722;2023-03-01T09:18:25;5.10;;;2.57;;
6852;SDS011;3465;42.144;24.722;2023-03-01T09:20:51;4.20;;;2.13;;
6852;SDS011;3465;42.144;24.722;2023-03-01T09:23:16;3.00;;;2.30;;
6852;SDS011;3465;42.144;24.722;2023-03-01T09:25:41;3.13;;;2.10;;
6852;SDS011;3465;42.144;24.722;2023-03-01T09:28:07;3.97;;;2.30;;
6852;SDS011;3465;42.144;24.722;2023-03-01T09:30:32;4.07;;;2.33;;
6852;SDS011;3465;42.144;24.722;2023-03-01T09:32:58;2.53;;;2.23;;
6852;SDS011;3465;42.144;24.722;2023-03-01T09:35:23;2.63;;;2.00;;
6852;SDS011;3465;42.144;24.722;2023-03-01T09:37:49;3.77;;;2.00;;
6852;SDS011;3465;42.144;24.722;2023-03-01T09:40:21;3.37;;;2.20;;
6852;SDS011;3465;42.144;24.722;2023-03-01T09:45:46;3.80;;;2.27;;
6852;SDS011;3465;42.144;24.722;2023-03-01T09:48:21;3.43;;;2.20;;
6852;SDS011;3465;42.144;24.722;2023-03-01T09:50:51;2.20;;;1.70;;
6852;SDS011;3465;42.144;24.722;2023-03-01T09:53:25;3.03;;;2.33;;
6852;SDS011;3465;42.144;24.722;2023-03-01T10:09:34;5.07;;;3.40;;
6852;SDS011;3465;42.144;24.722;2023-03-01T10:12:04;5.70;;;3.17;;
6852;SDS011;3465;42.144;24.722;2023-03-01T10:19:41;7.10;;;2.97;;
6852;SDS011;3465;42.144;24.722;2023-03-01T10:24:49;5.97;;;2.90;;
6852;SDS011;3465;42.144;24.722;2023-03-01T10:32:45;3.60;;;2.97;;
6852;SDS011;3465;42.144;24.722;2023-03-01T10:35:18;6.13;;;2.43;;
6852;SDS011;3465;42.144;24.722;2023-03-01T10:40:32;4.90;;;3.07;;
6852;SDS011;3465;42.144;24.722;2023-03-01T10:43:00;3.77;;;3.07;;
6852;SDS011;3465;42.144;24.722;2023-03-01T10:50:49;6.57;;;4.83;;
6852;SDS011;3465;42.144;24.722;2023-03-01T10:53:35;9.37;;;4.97;;
6852;SDS011;3465;42.144;24.722;2023-03-01T10:56:05;6.53;;;4.83;;
6852;SDS011;3465;42.144;24.722;2023-03-01T10:58:32;8.20;;;5.37;;
6852;SDS011;3465;42.144;24.722;2023-03-01T11:01:00;6.57;;;4.50;;
6852;SDS011;3465;42.144;24.722;2023-03-01T11:06:36;4.33;;;2.60;;
6852;SDS011;3465;42.144;24.722;2023-03-01T11:09:19;3.40;;;2.50;;
6852;SDS011;3465;42.144;24.722;2023-03-01T11:11:52;4.23;;;2.80;;
6852;SDS011;3465;42.144;24.722;2023-03-01T11:14:23;6.33;;;2.77;;
6852;SDS011;3465;42.144;24.722;2023-03-01T11:19:26;6.13;;;2.97;;
6852;SDS011;3465;42.144;24.722;2023-03-01T11:24:43;6.83;;;3.20;;
6852;SDS011;3465;42.144;24.722;2023-03-01T11:27:16;3.20;;;2.60;;
6852;SDS011;3465;42.144;24.722;2023-03-01T11:29:46;4.80;;;2.63;;
6852;SDS011;3465;42.144;24.722;2023-03-01T11:32:17;3.73;;;2.50;;
6852;SDS011;3465;42.144;24.722;2023-03-01T11:34:49;3.60;;;2.70;;
6852;SDS011;3465;42.144;24.722;2023-03-01T11:37:26;6.10;;;3.60;;
6852;SDS011;3465;42.144;24.722;2023-03-01T11:52:04;3.87;;;2.90;;
6852;SDS011;3465;42.144;24.722;2023-03-01T12:00:12;3.57;;;2.70;;
6852;SDS011;3465;42.144;24.722;2023-03-01T12:10:31;5.67;;;3.83;;
6852;SDS011;3465;42.144;24.722;2023-03-01T12:19:19;13.17;;;6.23;;
6852;SDS011;3465;42.144;24.722;2023-03-01T12:35:34;10.37;;;6.57;;
6852;SDS011;3465;42.144;24.722;2023-03-01T12:48:24;12.37;;;7.43;;
6852;SDS011;3465;42.144;24.722;2023-03-01T12:51:10;10.03;;;7.10;;
6852;SDS011;3465;42.144;24.722;2023-03-01T12:53:40;10.03;;;6.90;;
6852;SDS011;3465;42.144;24.722;2023-03-01T12:56:09;13.27;;;7.67;;
6852;SDS011;3465;42.144;24.722;2023-03-01T13:01:21;13.03;;;7.37;;
6852;SDS011;3465;42.144;24.722;2023-03-01T13:09:30;16.13;;;9.57;;
6852;SDS011;3465;42.144;24.722;2023-03-01T13:12:04;14.30;;;9.43;;
6852;SDS011;3465;42.144;24.722;2023-03-01T13:15:24;14.50;;;8.97;;
6852;SDS011;3465;42.144;24.722;2023-03-01T13:17:57;12.40;;;8.63;;
6852;SDS011;3465;42.144;24.722;2023-03-01T13:20:25;12.90;;;7.97;;
6852;SDS011;3465;42.144;24.722;2023-03-01T13:23:01;12.70;;;7.37;;
6852;SDS011;3465;42.144;24.722;2023-03-01T13:25:59;8.00;;;5.60;;
6852;SDS011;3465;42.144;24.722;2023-03-01T13:33:47;9.63;;;6.20;;
6852;SDS011;3465;42.144;24.722;2023-03-01T13:49:41;10.13;;;5.83;;
6852;SDS011;3465;42.144;24.722;2023-03-01T13:55:06;10.33;;;6.20;;
6852;SDS011;3465;42.144;24.722;2023-03-01T13:57:39;9.90;;;6.33;;
6852;SDS011;3465;42.144;24.722;2023-03-01T14:00:06;11.07;;;5.60;;
6852;SDS011;3465;42.144;24.722;2023-03-01T14:02:59;10.07;;;5.80;;
6852;SDS011;3465;42.144;24.722;2023-03-01T14:05:25;11.33;;;5.70;;
6852;SDS011;3465;42.144;24.722;2023-03-01T14:07:51;18.03;;;6.57;;
6852;SDS011;3465;42.144;24.722;2023-03-01T14:10:17;8.10;;;5.77;;
6852;SDS011;3465;42.144;24.722;2023-03-01T14:12:51;8.80;;;6.00;;
6852;SDS011;3465;42.144;24.722;2023-03-01T14:20:41;13.37;;;6.33;;
6852;SDS011;3465;42.144;24.722;2023-03-01T14:23:17;8.50;;;5.40;;
6852;SDS011;3465;42.144;24.722;2023-03-01T14:25:54;10.20;;;5.60;;
6852;SDS011;3465;42.144;24.722;2023-03-01T14:28:28;10.57;;;5.43;;
6852;SDS011;3465;42.144;24.722;2023-03-01T14:30:56;9.00;;;6.00;;
6852;SDS011;3465;42.144;24.722;2023-03-01T14:33:24;8.37;;;6.30;;
6852;SDS011;3465;42.144;24.722;2023-03-01T14:35:58;8.03;;;4.87;;
6852;SDS011;3465;42.144;24.722;2023-03-01T14:38:28;8.33;;;5.10;;
6852;SDS011;3465;42.144;24.722;2023-03-01T14:41:08;9.93;;;5.07;;
6852;SDS011;3465;42.144;24.722;2023-03-01T14:43:41;6.63;;;4.77;;
6852;SDS011;3465;42.144;24.722;2023-03-01T14:46:38;7.13;;;4.47;;
6852;SDS011;3465;42.144;24.722;2023-03-01T14:51:43;8.37;;;3.80;;
6852;SDS011;3465;42.144;24.722;2023-03-01T14:57:00;8.27;;;5.33;;
6852;SDS011;3465;42.144;24.722;2023-03-01T14:59:26;7.97;;;4.87;;
6852;SDS011;3465;42.144;24.722;2023-03-01T15:01:53;8.57;;;4.87;;
6852;SDS011;3465;42.144;24.722;2023-03-01T15:04:21;7.37;;;4.20;;
6852;SDS011;3465;42.144;24.722;2023-03-01T15:06:49;6.57;;;4.13;;
6852;SDS011;3465;42.144;24.722;2023-03-01T15:09:17;10.10;;;4.73;;
6852;SDS011;3465;42.144;24.722;2023-03-01T15:11:43;9.23;;;4.67;;
6852;SDS011;3465;42.144;24.722;2023-03-01T15:16:54;10.83;;;6.60;;
6852;SDS011;3465;42.144;24.722;2023-03-01T15:19:21;12.87;;;6.70;;
6852;SDS011;3465;42.144;24.722;2023-03-01T15:21:49;9.40;;;5.13;;
6852;SDS011;3465;42.144;24.722;2023-03-01T15:24:20;7.97;;;5.20;;
6852;SDS011;3465;42.144;24.722;2023-03-01T15:26:53;11.23;;;6.80;;
6852;SDS011;3465;42.144;24.722;2023-03-01T15:29:31;8.97;;;5.83;;
6852;SDS011;3465;42.144;24.722;2023-03-01T15:32:20;9.47;;;5.90;;
6852;SDS011;3465;42.144;24.722;2023-03-01T15:34:47;10.40;;;5.37;;
6852;SDS011;3465;42.144;24.722;2023-03-01T15:40:22;9.07;;;5.50;;
6852;SDS011;3465;42.144;24.722;2023-03-01T15:42:56;14.40;;;7.40;;
6852;SDS011;3465;42.144;24.722;2023-03-01T15:45:25;9.93;;;6.07;;
6852;SDS011;3465;42.144;24.722;2023-03-01T15:50:26;22.47;;;15.27;;
6852;SDS011;3465;42.144;24.722;2023-03-01T15:52:54;20.70;;;12.63;;
6852;SDS011;3465;42.144;24.722;2023-03-01T15:55:22;13.93;;;7.73;;
6852;SDS011;3465;42.144;24.722;2023-03-01T16:00:51;32.73;;;17.93;;
6852;SDS011;3465;42.144;24.722;2023-03-01T16:03:20;17.70;;;11.13;;
6852;SDS011;3465;42.144;24.722;2023-03-01T16:05:47;17.43;;;8.83;;
6852;SDS011;3465;42.144;24.722;2023-03-01T16:08:13;42.10;;;22.70;;
6852;SDS011;3465;42.144;24.722;2023-03-01T16:10:39;38.43;;;18.90;;
6852;SDS011;3465;42.144;24.722;2023-03-01T16:13:06;58.37;;;24.07;;
6852;SDS011;3465;42.144;24.722;2023-03-01T16:15:33;51.70;;;21.80;;
6852;SDS011;3465;42.144;24.722;2023-03-01T16:18:00;37.73;;;16.57;;
6852;SDS011;3465;42.144;24.722;2023-03-01T16:20:26;14.93;;;7.70;;
6852;SDS011;3465;42.144;24.722;2023-03-01T16:22:53;12.70;;;7.17;;
6852;SDS011;3465;42.144;24.722;2023-03-01T16:25:19;17.23;;;8.93;;
6852;SDS011;3465;42.144;24.722;2023-03-01T16:27:46;10.90;;;5.70;;
6852;SDS011;3465;42.144;24.722;2023-03-01T16:30:13;23.37;;;11.67;;
6852;SDS011;3465;42.144;24.722;2023-03-01T16:32:40;14.97;;;8.13;;
6852;SDS011;3465;42.144;24.722;2023-03-01T16:35:07;15.93;;;9.80;;
6852;SDS011;3465;42.144;24.722;2023-03-01T16:37:34;9.17;;;5.70;;
6852;SDS011;3465;42.144;24.722;2023-03-01T16:40:00;12.07;;;7.10;;
6852;SDS011;3465;42.144;24.722;2023-03-01T16:42:27;11.30;;;5.70;;
6852;SDS011;3465;42.144;24.722;2023-03-01T16:44:55;16.67;;;8.20;;
6852;SDS011;3465;42.144;24.722;2023-03-01T16:47:21;14.30;;;8.47;;
6852;SDS011;3465;42.144;24.722;2023-03-01T16:49:47;20.37;;;10.93;;
6852;SDS011;3465;42.144;24.722;2023-03-01T16:52:16;14.30;;;7.70;;
6852;SDS011;3465;42.144;24.722;2023-03-01T16:54:41;11.63;;;6.47;;
6852;SDS011;3465;42.144;24.722;2023-03-01T16:57:07;11.67;;;6.23;;
6852;SDS011;3465;42.144;24.722;2023-03-01T16:59:32;11.23;;;6.70;;
6852;SDS011;3465;42.144;24.722;2023-03-01T17:01:57;20.40;;;10.60;;
6852;SDS011;3465;42.144;24.722;2023-03-01T17:04:23;24.77;;;14.07;;
6852;SDS011;3465;42.144;24.722;2023-03-01T17:06:49;29.27;;;14.00;;
6852;SDS011;3465;42.144;24.722;2023-03-01T17:09:14;11.20;;;6.50;;
6852;SDS011;3465;42.144;24.722;2023-03-01T17:11:41;10.93;;;6.27;;
6852;SDS011;3465;42.144;24.722;2023-03-01T17:14:07;10.60;;;5.97;;
6852;SDS011;3465;42.144;24.722;2023-03-01T17:16:33;10.37;;;5.90;;
6852;SDS011;3465;42.144;24.722;2023-03-01T17:18:59;15.07;;;6.80;;
6852;SDS011;3465;42.144;24.722;2023-03-01T17:21:24;10.33;;;6.50;;
6852;SDS011;3465;42.144;24.722;2023-03-01T17:23:50;11.27;;;6.30;;
6852;SDS011;3465;42.144;24.722;2023-03-01T17:26:20;13.80;;;7.37;;
6852;SDS011;3465;42.144;24.722;2023-03-01T17:28:45;11.83;;;6.93;;
6852;SDS011;3465;42.144;24.722;2023-03-01T17:31:15;12.00;;;7.43;;
6852;SDS011;3465;42.144;24.722;2023-03-01T17:33:41;12.13;;;6.73;;
6852;SDS011;3465;42.144;24.722;2023-03-01T17:36:06;15.30;;;7.43;;
6852;SDS011;3465;42.144;24.722;2023-03-01T17:38:32;13.37;;;7.17;;
6852;SDS011;3465;42.144;24.722;2023-03-01T17:40:58;11.93;;;6.53;;
6852;SDS011;3465;42.144;24.722;2023-03-01T17:43:24;11.27;;;7.13;;
6852;SDS011;3465;42.144;24.722;2023-03-01T17:45:50;13.97;;;7.50;;
6852;SDS011;3465;42.144;24.722;2023-03-01T17:48:16;11.37;;;6.70;;
6852;SDS011;3465;42.144;24.722;2023-03-01T17:50:42;12.70;;;7.27;;
6852;SDS011;3465;42.144;24.722;2023-03-01T17:53:08;10.03;;;6.03;;
6852;SDS011;3465;42.144;24.722;2023-03-01T17:55:43;9.97;;;6.43;;
6852;SDS011;3465;42.144;24.722;2023-03-01T17:58:11;11.03;;;7.00;;